sensor_id;sensor_type;location;lat;lon;timestamp;P1;durP1;ratioP1;P2;durP2;ratioP2
65174;SDS011;51761;42.126;24.752;2023-02-01T00:01:57;9.30;;;4.88;;
65174;SDS011;51761;42.126;24.752;2023-02-01T00:04:23;10.45;;;5.03;;
65174;SDS011;51761;42.126;24.752;2023-02-01T00:06:48;8.35;;;4.93;;
65174;SDS011;51761;42.126;24.752;2023-02-01T00:09:14;10.95;;;4.68;;
65174;SDS011;51761;42.126;24.752;2023-02-01T00:11:39;9.25;;;3.95;;
65174;SDS011;51761;42.126;24.752;2023-02-01T00:14:05;8.25;;;4.35;;
65174;SDS011;51761;42.126;24.752;2023-02-01T00:16:31;7.85;;;4.47;;
65174;SDS011;51761;42.126;24.752;2023-02-01T00:19:07;8.85;;;4.38;;
65174;SDS011;51761;42.126;24.752;2023-02-01T00:21:36;8.25;;;4.18;;
65174;SDS011;51761;42.126;24.752;2023-02-01T00:24:01;6.75;;;3.88;;
65174;SDS011;51761;42.126;24.752;2023-02-01T00:29:01;5.28;;;3.72;;
65174;SDS011;51761;42.126;24.752;2023-02-01T00:31:30;6.90;;;3.72;;
65174;SDS011;51761;42.126;24.752;2023-02-01T00:33:55;6.90;;;3.75;;
65174;SDS011;51761;42.126;24.752;2023-02-01T00:36:21;6.38;;;3.72;;
65174;SDS011;51761;42.126;24.752;2023-02-01T00:38:46;6.13;;;3.67;;
65174;SDS011;51761;42.126;24.752;2023-02-01T00:41:16;7.80;;;3.97;;
65174;SDS011;51761;42.126;24.752;2023-02-01T00:43:43;5.80;;;3.08;;
65174;SDS011;51761;42.126;24.752;2023-02-01T00:46:10;6.72;;;3.42;;
65174;SDS011;51761;42.126;24.752;2023-02-01T00:48:36;8.68;;;3.55;;
65174;SDS011;51761;42.126;24.752;2023-02-01T00:51:03;6.57;;;3.30;;
65174;SDS011;51761;42.126;24.752;2023-02-01T00:53:31;8.50;;;3.67;;
65174;SDS011;51761;42.126;24.752;2023-02-01T00:55:58;6.45;;;3.28;;
65174;SDS011;51761;42.126;24.752;2023-02-01T00:58:24;6.25;;;3.42;;
65174;SDS011;51761;42.126;24.752;2023-02-01T01:01:01;9.68;;;4.70;;
65174;SDS011;51761;42.126;24.752;2023-02-01T01:03:32;6.25;;;3.55;;
65174;SDS011;51761;42.126;24.752;2023-02-01T01:06:00;6.72;;;3.47;;
65174;SDS011;51761;42.126;24.752;2023-02-01T01:08:28;6.07;;;3.85;;
65174;SDS011;51761;42.126;24.752;2023-02-01T01:10:54;7.18;;;3.40;;
65174;SDS011;51761;42.126;24.752;2023-02-01T01:13:20;6.15;;;3.35;;
65174;SDS011;51761;42.126;24.752;2023-02-01T01:15:46;5.63;;;3.50;;
65174;SDS011;51761;42.126;24.752;2023-02-01T01:18:11;9.85;;;4.00;;
65174;SDS011;51761;42.126;24.752;2023-02-01T01:20:37;6.18;;;3.90;;
65174;SDS011;51761;42.126;24.752;2023-02-01T01:23:04;5.18;;;3.47;;
65174;SDS011;51761;42.126;24.752;2023-02-01T01:25:31;9.52;;;3.35;;
65174;SDS011;51761;42.126;24.752;2023-02-01T01:27:57;6.53;;;3.45;;
65174;SDS011;51761;42.126;24.752;2023-02-01T01:30:22;6.10;;;3.25;;
65174;SDS011;51761;42.126;24.752;2023-02-01T01:32:48;4.93;;;3.28;;
65174;SDS011;51761;42.126;24.752;2023-02-01T01:35:14;5.05;;;3.65;;
65174;SDS011;51761;42.126;24.752;2023-02-01T01:37:39;6.07;;;4.13;;
65174;SDS011;51761;42.126;24.752;2023-02-01T01:40:05;6.60;;;3.60;;
65174;SDS011;51761;42.126;24.752;2023-02-01T01:42:38;5.53;;;3.53;;
65174;SDS011;51761;42.126;24.752;2023-02-01T01:45:06;5.63;;;3.42;;
65174;SDS011;51761;42.126;24.752;2023-02-01T01:47:40;8.18;;;3.72;;
65174;SDS011;51761;42.126;24.752;2023-02-01T01:50:10;9.52;;;3.78;;
65174;SDS011;51761;42.126;24.752;2023-02-01T01:52:38;6.20;;;3.78;;
65174;SDS011;51761;42.126;24.752;2023-02-01T01:55:06;6.13;;;3.40;;
65174;SDS011;51761;42.126;24.752;2023-02-01T01:57:33;5.82;;;3.28;;
65174;SDS011;51761;42.126;24.752;2023-02-01T02:02:34;5.88;;;3.67;;
65174;SDS011;51761;42.126;24.752;2023-02-01T02:05:01;6.70;;;3.63;;
65174;SDS011;51761;42.126;24.752;2023-02-01T02:07:28;7.07;;;3.63;;
65174;SDS011;51761;42.126;24.752;2023-02-01T02:09:57;4.55;;;3.22;;
65174;SDS011;51761;42.126;24.752;2023-02-01T02:12:23;6.30;;;3.03;;
65174;SDS011;51761;42.126;24.752;2023-02-01T02:14:48;6.53;;;3.20;;
65174;SDS011;51761;42.126;24.752;2023-02-01T02:23:27;8.02;;;3.30;;
65174;SDS011;51761;42.126;24.752;2023-02-01T02:34:06;5.47;;;2.83;;
65174;SDS011;51761;42.126;24.752;2023-02-01T02:42:14;6.22;;;2.85;;
65174;SDS011;51761;42.126;24.752;2023-02-01T02:45:12;6.38;;;2.90;;
65174;SDS011;51761;42.126;24.752;2023-02-01T02:53:38;4.35;;;2.88;;
65174;SDS011;51761;42.126;24.752;2023-02-01T02:56:35;4.32;;;2.75;;
65174;SDS011;51761;42.126;24.752;2023-02-01T02:59:22;6.50;;;3.00;;
65174;SDS011;51761;42.126;24.752;2023-02-01T03:02:10;4.57;;;3.03;;
65174;SDS011;51761;42.126;24.752;2023-02-01T03:04:55;5.75;;;3.33;;
65174;SDS011;51761;42.126;24.752;2023-02-01T03:10:10;4.10;;;3.25;;
65174;SDS011;51761;42.126;24.752;2023-02-01T03:12:47;6.72;;;3.17;;
65174;SDS011;51761;42.126;24.752;2023-02-01T03:18:23;5.45;;;3.38;;
65174;SDS011;51761;42.126;24.752;2023-02-01T03:21:02;32.55;;;10.13;;
65174;SDS011;51761;42.126;24.752;2023-02-01T03:23:34;8.00;;;3.65;;
65174;SDS011;51761;42.126;24.752;2023-02-01T03:26:03;8.70;;;4.00;;
65174;SDS011;51761;42.126;24.752;2023-02-01T03:28:32;8.57;;;3.55;;
65174;SDS011;51761;42.126;24.752;2023-02-01T03:30:59;6.60;;;3.88;;
65174;SDS011;51761;42.126;24.752;2023-02-01T03:33:26;7.65;;;3.80;;
65174;SDS011;51761;42.126;24.752;2023-02-01T03:46:35;7.80;;;3.95;;
65174;SDS011;51761;42.126;24.752;2023-02-01T03:49:06;11.80;;;4.28;;
65174;SDS011;51761;42.126;24.752;2023-02-01T03:51:36;8.43;;;4.68;;
65174;SDS011;51761;42.126;24.752;2023-02-01T03:54:04;8.77;;;4.97;;
65174;SDS011;51761;42.126;24.752;2023-02-01T03:56:36;9.60;;;4.30;;
65174;SDS011;51761;42.126;24.752;2023-02-01T03:59:03;11.32;;;4.40;;
65174;SDS011;51761;42.126;24.752;2023-02-01T04:01:30;9.50;;;4.55;;
65174;SDS011;51761;42.126;24.752;2023-02-01T04:03:56;9.43;;;5.25;;
65174;SDS011;51761;42.126;24.752;2023-02-01T04:06:23;9.73;;;5.10;;
65174;SDS011;51761;42.126;24.752;2023-02-01T04:08:49;6.80;;;4.18;;
65174;SDS011;51761;42.126;24.752;2023-02-01T04:11:14;10.95;;;5.45;;
65174;SDS011;51761;42.126;24.752;2023-02-01T04:13:40;13.05;;;6.68;;
65174;SDS011;51761;42.126;24.752;2023-02-01T04:16:06;12.30;;;6.90;;
65174;SDS011;51761;42.126;24.752;2023-02-01T04:18:31;10.23;;;6.45;;
65174;SDS011;51761;42.126;24.752;2023-02-01T04:20:57;10.73;;;5.93;;
65174;SDS011;51761;42.126;24.752;2023-02-01T04:23:22;12.60;;;7.03;;
65174;SDS011;51761;42.126;24.752;2023-02-01T04:25:47;11.15;;;6.95;;
65174;SDS011;51761;42.126;24.752;2023-02-01T04:28:13;8.52;;;5.78;;
65174;SDS011;51761;42.126;24.752;2023-02-01T04:30:38;11.07;;;6.15;;
65174;SDS011;51761;42.126;24.752;2023-02-01T04:33:04;10.25;;;5.60;;
65174;SDS011;51761;42.126;24.752;2023-02-01T04:35:33;8.45;;;5.45;;
65174;SDS011;51761;42.126;24.752;2023-02-01T04:37:59;8.07;;;4.95;;
65174;SDS011;51761;42.126;24.752;2023-02-01T04:40:25;13.23;;;5.35;;
65174;SDS011;51761;42.126;24.752;2023-02-01T04:42:50;8.98;;;5.43;;
65174;SDS011;51761;42.126;24.752;2023-02-01T04:45:15;11.88;;;5.20;;
65174;SDS011;51761;42.126;24.752;2023-02-01T04:47:41;12.27;;;6.55;;
65174;SDS011;51761;42.126;24.752;2023-02-01T04:50:07;9.73;;;5.38;;
65174;SDS011;51761;42.126;24.752;2023-02-01T04:52:35;9.43;;;5.30;;
65174;SDS011;51761;42.126;24.752;2023-02-01T04:55:01;10.43;;;5.10;;
65174;SDS011;51761;42.126;24.752;2023-02-01T04:57:28;10.93;;;5.18;;
65174;SDS011;51761;42.126;24.752;2023-02-01T04:59:53;8.32;;;4.88;;
65174;SDS011;51761;42.126;24.752;2023-02-01T05:02:18;9.77;;;5.68;;
65174;SDS011;51761;42.126;24.752;2023-02-01T05:04:44;9.77;;;5.22;;
65174;SDS011;51761;42.126;24.752;2023-02-01T05:07:09;7.15;;;5.00;;
65174;SDS011;51761;42.126;24.752;2023-02-01T05:09:35;9.25;;;6.20;;
65174;SDS011;51761;42.126;24.752;2023-02-01T05:12:00;12.07;;;4.40;;
65174;SDS011;51761;42.126;24.752;2023-02-01T05:14:44;12.05;;;5.03;;
65174;SDS011;51761;42.126;24.752;2023-02-01T05:17:10;8.23;;;4.65;;
65174;SDS011;51761;42.126;24.752;2023-02-01T05:19:35;10.80;;;4.10;;
65174;SDS011;51761;42.126;24.752;2023-02-01T05:22:00;8.52;;;4.07;;
65174;SDS011;51761;42.126;24.752;2023-02-01T05:24:26;8.15;;;4.20;;
65174;SDS011;51761;42.126;24.752;2023-02-01T05:26:52;8.82;;;3.83;;
65174;SDS011;51761;42.126;24.752;2023-02-01T05:29:17;10.98;;;4.03;;
65174;SDS011;51761;42.126;24.752;2023-02-01T05:31:46;7.05;;;4.13;;
65174;SDS011;51761;42.126;24.752;2023-02-01T05:34:12;9.50;;;3.65;;
65174;SDS011;51761;42.126;24.752;2023-02-01T05:36:38;9.75;;;4.75;;
65174;SDS011;51761;42.126;24.752;2023-02-01T05:39:04;10.43;;;4.80;;
65174;SDS011;51761;42.126;24.752;2023-02-01T05:41:30;7.40;;;4.30;;
65174;SDS011;51761;42.126;24.752;2023-02-01T05:43:55;9.55;;;4.32;;
65174;SDS011;51761;42.126;24.752;2023-02-01T05:46:21;9.85;;;5.20;;
65174;SDS011;51761;42.126;24.752;2023-02-01T05:48:46;15.20;;;5.05;;
65174;SDS011;51761;42.126;24.752;2023-02-01T05:51:12;9.75;;;5.80;;
65174;SDS011;51761;42.126;24.752;2023-02-01T05:53:37;12.30;;;5.53;;
65174;SDS011;51761;42.126;24.752;2023-02-01T05:56:03;10.52;;;5.28;;
65174;SDS011;51761;42.126;24.752;2023-02-01T05:58:29;15.00;;;6.10;;
65174;SDS011;51761;42.126;24.752;2023-02-01T06:00:55;28.05;;;9.27;;
65174;SDS011;51761;42.126;24.752;2023-02-01T06:03:20;13.32;;;5.35;;
65174;SDS011;51761;42.126;24.752;2023-02-01T06:05:46;17.20;;;5.32;;
65174;SDS011;51761;42.126;24.752;2023-02-01T06:08:13;12.75;;;5.30;;
65174;SDS011;51761;42.126;24.752;2023-02-01T06:10:39;13.25;;;5.60;;
65174;SDS011;51761;42.126;24.752;2023-02-01T06:13:04;12.60;;;5.00;;
65174;SDS011;51761;42.126;24.752;2023-02-01T06:15:30;14.43;;;5.03;;
65174;SDS011;51761;42.126;24.752;2023-02-01T06:17:56;11.20;;;4.85;;
65174;SDS011;51761;42.126;24.752;2023-02-01T06:20:23;11.85;;;4.82;;
65174;SDS011;51761;42.126;24.752;2023-02-01T06:22:49;12.80;;;5.65;;
65174;SDS011;51761;42.126;24.752;2023-02-01T06:25:15;11.98;;;5.43;;
65174;SDS011;51761;42.126;24.752;2023-02-01T06:27:41;6.88;;;3.30;;
65174;SDS011;51761;42.126;24.752;2023-02-01T06:30:07;11.90;;;4.20;;
65174;SDS011;51761;42.126;24.752;2023-02-01T06:32:33;7.13;;;4.18;;
65174;SDS011;51761;42.126;24.752;2023-02-01T06:34:58;8.80;;;3.65;;
65174;SDS011;51761;42.126;24.752;2023-02-01T06:37:25;8.43;;;4.05;;
65174;SDS011;51761;42.126;24.752;2023-02-01T06:39:52;8.55;;;4.03;;
65174;SDS011;51761;42.126;24.752;2023-02-01T06:42:18;8.05;;;3.67;;
65174;SDS011;51761;42.126;24.752;2023-02-01T06:44:43;5.68;;;3.60;;
65174;SDS011;51761;42.126;24.752;2023-02-01T06:47:09;7.60;;;4.43;;
65174;SDS011;51761;42.126;24.752;2023-02-01T06:49:34;7.25;;;4.05;;
65174;SDS011;51761;42.126;24.752;2023-02-01T06:52:00;9.25;;;3.78;;
65174;SDS011;51761;42.126;24.752;2023-02-01T06:54:26;14.05;;;3.80;;
65174;SDS011;51761;42.126;24.752;2023-02-01T06:56:52;8.50;;;3.85;;
65174;SDS011;51761;42.126;24.752;2023-02-01T06:59:17;10.48;;;4.43;;
65174;SDS011;51761;42.126;24.752;2023-02-01T07:01:43;5.85;;;2.72;;
65174;SDS011;51761;42.126;24.752;2023-02-01T07:04:09;15.13;;;4.28;;
65174;SDS011;51761;42.126;24.752;2023-02-01T07:06:36;7.47;;;3.58;;
65174;SDS011;51761;42.126;24.752;2023-02-01T07:09:01;6.68;;;3.22;;
65174;SDS011;51761;42.126;24.752;2023-02-01T07:11:27;7.90;;;3.50;;
65174;SDS011;51761;42.126;24.752;2023-02-01T07:13:53;7.88;;;3.38;;
65174;SDS011;51761;42.126;24.752;2023-02-01T07:16:19;10.82;;;4.03;;
65174;SDS011;51761;42.126;24.752;2023-02-01T07:18:45;10.30;;;4.35;;
65174;SDS011;51761;42.126;24.752;2023-02-01T07:21:12;13.38;;;3.75;;
65174;SDS011;51761;42.126;24.752;2023-02-01T07:23:38;17.20;;;4.60;;
65174;SDS011;51761;42.126;24.752;2023-02-01T07:26:05;13.55;;;4.07;;
65174;SDS011;51761;42.126;24.752;2023-02-01T07:28:33;12.25;;;5.30;;
65174;SDS011;51761;42.126;24.752;2023-02-01T07:31:04;14.93;;;5.15;;
65174;SDS011;51761;42.126;24.752;2023-02-01T07:33:30;10.95;;;4.22;;
65174;SDS011;51761;42.126;24.752;2023-02-01T07:35:55;10.05;;;4.78;;
65174;SDS011;51761;42.126;24.752;2023-02-01T07:38:21;12.82;;;4.45;;
65174;SDS011;51761;42.126;24.752;2023-02-01T07:40:48;13.38;;;4.55;;
65174;SDS011;51761;42.126;24.752;2023-02-01T07:43:14;14.23;;;5.00;;
65174;SDS011;51761;42.126;24.752;2023-02-01T07:45:40;8.02;;;4.25;;
65174;SDS011;51761;42.126;24.752;2023-02-01T07:48:05;15.60;;;4.68;;
65174;SDS011;51761;42.126;24.752;2023-02-01T07:50:31;23.58;;;5.18;;
65174;SDS011;51761;42.126;24.752;2023-02-01T07:53:00;17.27;;;4.40;;
65174;SDS011;51761;42.126;24.752;2023-02-01T07:55:26;14.13;;;4.35;;
65174;SDS011;51761;42.126;24.752;2023-02-01T07:57:52;9.38;;;4.32;;
65174;SDS011;51761;42.126;24.752;2023-02-01T08:00:18;13.02;;;4.93;;
65174;SDS011;51761;42.126;24.752;2023-02-01T08:03:03;13.18;;;4.18;;
65174;SDS011;51761;42.126;24.752;2023-02-01T08:05:29;12.60;;;5.35;;
65174;SDS011;51761;42.126;24.752;2023-02-01T08:07:55;11.18;;;3.95;;
65174;SDS011;51761;42.126;24.752;2023-02-01T08:10:20;10.30;;;4.00;;
65174;SDS011;51761;42.126;24.752;2023-02-01T08:12:46;12.45;;;4.93;;
65174;SDS011;51761;42.126;24.752;2023-02-01T08:15:17;7.20;;;3.63;;
65174;SDS011;51761;42.126;24.752;2023-02-01T08:17:49;10.18;;;3.83;;
65174;SDS011;51761;42.126;24.752;2023-02-01T08:20:16;8.90;;;4.30;;
65174;SDS011;51761;42.126;24.752;2023-02-01T08:22:42;13.23;;;4.55;;
65174;SDS011;51761;42.126;24.752;2023-02-01T08:25:08;9.88;;;4.22;;
65174;SDS011;51761;42.126;24.752;2023-02-01T08:27:34;11.85;;;3.90;;
65174;SDS011;51761;42.126;24.752;2023-02-01T08:30:00;6.15;;;3.60;;
65174;SDS011;51761;42.126;24.752;2023-02-01T08:32:26;11.63;;;4.32;;
65174;SDS011;51761;42.126;24.752;2023-02-01T08:34:52;8.13;;;3.95;;
65174;SDS011;51761;42.126;24.752;2023-02-01T08:37:17;6.65;;;3.22;;
65174;SDS011;51761;42.126;24.752;2023-02-01T08:39:43;6.00;;;3.53;;
65174;SDS011;51761;42.126;24.752;2023-02-01T08:42:09;8.77;;;3.97;;
65174;SDS011;51761;42.126;24.752;2023-02-01T08:44:53;7.80;;;3.40;;
65174;SDS011;51761;42.126;24.752;2023-02-01T08:47:19;9.75;;;3.70;;
65174;SDS011;51761;42.126;24.752;2023-02-01T08:49:44;5.40;;;3.40;;
65174;SDS011;51761;42.126;24.752;2023-02-01T08:52:11;6.60;;;3.08;;
65174;SDS011;51761;42.126;24.752;2023-02-01T08:54:36;7.75;;;4.38;;
65174;SDS011;51761;42.126;24.752;2023-02-01T08:57:02;11.50;;;3.83;;
65174;SDS011;51761;42.126;24.752;2023-02-01T08:59:29;9.45;;;3.90;;
65174;SDS011;51761;42.126;24.752;2023-02-01T09:01:54;7.50;;;3.70;;
65174;SDS011;51761;42.126;24.752;2023-02-01T09:04:20;9.63;;;3.90;;
65174;SDS011;51761;42.126;24.752;2023-02-01T09:06:46;16.63;;;4.15;;
65174;SDS011;51761;42.126;24.752;2023-02-01T09:09:11;14.90;;;5.05;;
65174;SDS011;51761;42.126;24.752;2023-02-01T09:11:37;14.23;;;5.70;;
65174;SDS011;51761;42.126;24.752;2023-02-01T09:14:02;17.45;;;6.38;;
65174;SDS011;51761;42.126;24.752;2023-02-01T09:16:28;16.70;;;6.15;;
65174;SDS011;51761;42.126;24.752;2023-02-01T09:18:54;26.50;;;7.50;;
65174;SDS011;51761;42.126;24.752;2023-02-01T09:21:20;12.38;;;5.50;;
65174;SDS011;51761;42.126;24.752;2023-02-01T09:23:45;16.73;;;7.25;;
65174;SDS011;51761;42.126;24.752;2023-02-01T09:26:13;15.15;;;7.45;;
65174;SDS011;51761;42.126;24.752;2023-02-01T09:28:39;11.35;;;5.78;;
65174;SDS011;51761;42.126;24.752;2023-02-01T09:31:05;15.52;;;7.00;;
65174;SDS011;51761;42.126;24.752;2023-02-01T09:33:30;12.65;;;5.60;;
65174;SDS011;51761;42.126;24.752;2023-02-01T09:36:00;16.75;;;7.40;;
65174;SDS011;51761;42.126;24.752;2023-02-01T09:38:27;12.45;;;6.03;;
65174;SDS011;51761;42.126;24.752;2023-02-01T09:40:53;23.88;;;8.05;;
65174;SDS011;51761;42.126;24.752;2023-02-01T09:48:51;12.10;;;3.35;;
65174;SDS011;51761;42.126;24.752;2023-02-01T09:51:20;8.93;;;3.50;;
65174;SDS011;51761;42.126;24.752;2023-02-01T09:54:01;8.18;;;2.70;;
65174;SDS011;51761;42.126;24.752;2023-02-01T09:56:33;10.25;;;3.92;;
65174;SDS011;51761;42.126;24.752;2023-02-01T10:01:39;10.93;;;3.20;;
65174;SDS011;51761;42.126;24.752;2023-02-01T10:04:08;9.88;;;4.32;;
65174;SDS011;51761;42.126;24.752;2023-02-01T10:06:44;14.47;;;2.73;;
65174;SDS011;51761;42.126;24.752;2023-02-01T10:20:26;9.52;;;3.08;;
65174;SDS011;51761;42.126;24.752;2023-02-01T10:28:15;30.45;;;10.77;;
65174;SDS011;51761;42.126;24.752;2023-02-01T10:30:44;13.07;;;3.95;;
65174;SDS011;51761;42.126;24.752;2023-02-01T10:33:18;9.07;;;4.05;;
65174;SDS011;51761;42.126;24.752;2023-02-01T10:35:51;4.60;;;2.55;;
65174;SDS011;51761;42.126;24.752;2023-02-01T10:38:27;11.38;;;3.45;;
65174;SDS011;51761;42.126;24.752;2023-02-01T10:40:55;9.32;;;3.33;;
65174;SDS011;51761;42.126;24.752;2023-02-01T10:43:26;9.75;;;2.60;;
65174;SDS011;51761;42.126;24.752;2023-02-01T10:45:52;11.73;;;3.13;;
65174;SDS011;51761;42.126;24.752;2023-02-01T10:48:18;8.30;;;3.05;;
65174;SDS011;51761;42.126;24.752;2023-02-01T10:51:00;10.45;;;3.30;;
65174;SDS011;51761;42.126;24.752;2023-02-01T10:53:35;5.32;;;2.30;;
65174;SDS011;51761;42.126;24.752;2023-02-01T10:56:13;4.97;;;2.15;;
65174;SDS011;51761;42.126;24.752;2023-02-01T10:58:46;3.30;;;2.00;;
65174;SDS011;51761;42.126;24.752;2023-02-01T11:01:16;6.35;;;2.58;;
65174;SDS011;51761;42.126;24.752;2023-02-01T11:03:46;12.52;;;3.85;;
65174;SDS011;51761;42.126;24.752;2023-02-01T11:06:37;8.55;;;3.13;;
65174;SDS011;51761;42.126;24.752;2023-02-01T11:11:32;5.65;;;2.45;;
65174;SDS011;51761;42.126;24.752;2023-02-01T11:14:00;6.43;;;2.90;;
65174;SDS011;51761;42.126;24.752;2023-02-01T11:16:37;7.75;;;3.15;;
65174;SDS011;51761;42.126;24.752;2023-02-01T11:19:04;6.35;;;2.42;;
65174;SDS011;51761;42.126;24.752;2023-02-01T11:21:30;14.30;;;3.92;;
65174;SDS011;51761;42.126;24.752;2023-02-01T11:24:04;8.60;;;3.40;;
65174;SDS011;51761;42.126;24.752;2023-02-01T11:26:34;9.10;;;3.08;;
65174;SDS011;51761;42.126;24.752;2023-02-01T11:29:10;4.00;;;2.50;;
65174;SDS011;51761;42.126;24.752;2023-02-01T11:31:38;3.70;;;2.13;;
65174;SDS011;51761;42.126;24.752;2023-02-01T11:34:12;4.43;;;2.33;;
65174;SDS011;51761;42.126;24.752;2023-02-01T11:36:41;7.60;;;2.63;;
65174;SDS011;51761;42.126;24.752;2023-02-01T11:44:32;6.32;;;2.70;;
65174;SDS011;51761;42.126;24.752;2023-02-01T11:49:48;6.85;;;2.55;;
65174;SDS011;51761;42.126;24.752;2023-02-01T11:52:29;6.95;;;2.63;;
65174;SDS011;51761;42.126;24.752;2023-02-01T11:58:02;20.05;;;6.13;;
65174;SDS011;51761;42.126;24.752;2023-02-01T12:05:41;15.60;;;5.95;;
65174;SDS011;51761;42.126;24.752;2023-02-01T12:08:26;13.68;;;3.00;;
65174;SDS011;51761;42.126;24.752;2023-02-01T12:13:55;14.82;;;3.10;;
65174;SDS011;51761;42.126;24.752;2023-02-01T12:16:36;7.60;;;2.45;;
65174;SDS011;51761;42.126;24.752;2023-02-01T12:24:53;14.93;;;5.00;;
65174;SDS011;51761;42.126;24.752;2023-02-01T12:33:18;5.18;;;2.38;;
65174;SDS011;51761;42.126;24.752;2023-02-01T12:36:14;3.92;;;2.28;;
65174;SDS011;51761;42.126;24.752;2023-02-01T12:38:51;5.03;;;1.70;;
65174;SDS011;51761;42.126;24.752;2023-02-01T12:52:32;5.13;;;2.50;;
65174;SDS011;51761;42.126;24.752;2023-02-01T12:58:12;6.80;;;2.83;;
65174;SDS011;51761;42.126;24.752;2023-02-01T13:00:47;8.45;;;3.00;;
65174;SDS011;51761;42.126;24.752;2023-02-01T13:03:27;5.57;;;2.63;;
65174;SDS011;51761;42.126;24.752;2023-02-01T13:06:13;8.15;;;2.70;;
65174;SDS011;51761;42.126;24.752;2023-02-01T13:08:47;7.28;;;2.80;;
65174;SDS011;51761;42.126;24.752;2023-02-01T13:11:29;9.70;;;2.70;;
65174;SDS011;51761;42.126;24.752;2023-02-01T13:17:04;8.85;;;2.08;;
65174;SDS011;51761;42.126;24.752;2023-02-01T13:20:17;6.07;;;2.70;;
65174;SDS011;51761;42.126;24.752;2023-02-01T13:22:43;7.45;;;2.33;;
65174;SDS011;51761;42.126;24.752;2023-02-01T13:25:17;5.68;;;2.35;;
65174;SDS011;51761;42.126;24.752;2023-02-01T13:27:55;8.52;;;2.35;;
65174;SDS011;51761;42.126;24.752;2023-02-01T13:30:29;7.45;;;2.75;;
65174;SDS011;51761;42.126;24.752;2023-02-01T13:38:42;7.03;;;2.40;;
65174;SDS011;51761;42.126;24.752;2023-02-01T13:41:31;7.28;;;2.55;;
65174;SDS011;51761;42.126;24.752;2023-02-01T13:44:03;8.10;;;2.40;;
65174;SDS011;51761;42.126;24.752;2023-02-01T13:46:43;13.73;;;4.25;;
65174;SDS011;51761;42.126;24.752;2023-02-01T13:49:28;7.97;;;2.75;;
65174;SDS011;51761;42.126;24.752;2023-02-01T13:51:57;4.90;;;2.50;;
65174;SDS011;51761;42.126;24.752;2023-02-01T13:54:31;4.18;;;2.15;;
65174;SDS011;51761;42.126;24.752;2023-02-01T13:56:59;8.18;;;3.95;;
65174;SDS011;51761;42.126;24.752;2023-02-01T14:23:41;5.57;;;2.58;;
65174;SDS011;51761;42.126;24.752;2023-02-01T14:26:10;7.85;;;3.05;;
65174;SDS011;51761;42.126;24.752;2023-02-01T14:28:40;4.03;;;2.30;;
65174;SDS011;51761;42.126;24.752;2023-02-01T14:34:29;9.07;;;3.17;;
65174;SDS011;51761;42.126;24.752;2023-02-01T14:37:03;10.23;;;3.55;;
65174;SDS011;51761;42.126;24.752;2023-02-01T14:41:59;6.13;;;2.53;;
65174;SDS011;51761;42.126;24.752;2023-02-01T14:44:32;6.55;;;3.25;;
65174;SDS011;51761;42.126;24.752;2023-02-01T14:47:33;5.50;;;3.08;;
65174;SDS011;51761;42.126;24.752;2023-02-01T14:50:03;8.73;;;3.13;;
65174;SDS011;51761;42.126;24.752;2023-02-01T14:52:36;7.65;;;3.22;;
65174;SDS011;51761;42.126;24.752;2023-02-01T14:55:18;6.45;;;2.78;;
65174;SDS011;51761;42.126;24.752;2023-02-01T14:57:52;9.65;;;2.75;;
65174;SDS011;51761;42.126;24.752;2023-02-01T15:00:26;8.95;;;3.35;;
65174;SDS011;51761;42.126;24.752;2023-02-01T15:02:54;10.05;;;3.58;;
65174;SDS011;51761;42.126;24.752;2023-02-01T15:05:26;12.45;;;4.75;;
65174;SDS011;51761;42.126;24.752;2023-02-01T15:07:54;10.52;;;4.25;;
65174;SDS011;51761;42.126;24.752;2023-02-01T15:10:22;10.38;;;4.28;;
65174;SDS011;51761;42.126;24.752;2023-02-01T15:12:48;15.05;;;5.32;;
65174;SDS011;51761;42.126;24.752;2023-02-01T15:15:19;12.20;;;4.82;;
65174;SDS011;51761;42.126;24.752;2023-02-01T15:17:51;14.73;;;5.88;;
65174;SDS011;51761;42.126;24.752;2023-02-01T15:20:22;17.20;;;5.03;;
65174;SDS011;51761;42.126;24.752;2023-02-01T15:22:57;10.13;;;3.95;;
65174;SDS011;51761;42.126;24.752;2023-02-01T15:25:27;10.40;;;4.75;;
65174;SDS011;51761;42.126;24.752;2023-02-01T15:27:55;13.52;;;4.45;;
65174;SDS011;51761;42.126;24.752;2023-02-01T15:30:23;9.48;;;4.05;;
65174;SDS011;51761;42.126;24.752;2023-02-01T15:35:41;10.45;;;3.95;;
65174;SDS011;51761;42.126;24.752;2023-02-01T15:43:37;12.02;;;5.38;;
65174;SDS011;51761;42.126;24.752;2023-02-01T15:48:55;11.40;;;5.07;;
65174;SDS011;51761;42.126;24.752;2023-02-01T15:51:25;16.30;;;6.32;;
65174;SDS011;51761;42.126;24.752;2023-02-01T15:54:04;14.52;;;5.07;;
65174;SDS011;51761;42.126;24.752;2023-02-01T15:56:33;15.48;;;5.03;;
65174;SDS011;51761;42.126;24.752;2023-02-01T15:59:02;14.55;;;6.45;;
65174;SDS011;51761;42.126;24.752;2023-02-01T16:01:35;13.95;;;5.57;;
65174;SDS011;51761;42.126;24.752;2023-02-01T16:06:45;21.20;;;7.07;;
65174;SDS011;51761;42.126;24.752;2023-02-01T16:09:13;19.55;;;7.47;;
65174;SDS011;51761;42.126;24.752;2023-02-01T16:12:02;16.95;;;7.93;;
65174;SDS011;51761;42.126;24.752;2023-02-01T16:14:28;14.75;;;6.35;;
65174;SDS011;51761;42.126;24.752;2023-02-01T16:16:55;14.70;;;5.43;;
65174;SDS011;51761;42.126;24.752;2023-02-01T16:19:22;14.57;;;5.97;;
65174;SDS011;51761;42.126;24.752;2023-02-01T16:21:52;11.90;;;5.63;;
65174;SDS011;51761;42.126;24.752;2023-02-01T16:24:18;19.02;;;7.85;;
65174;SDS011;51761;42.126;24.752;2023-02-01T16:26:44;16.40;;;6.28;;
65174;SDS011;51761;42.126;24.752;2023-02-01T16:29:09;13.68;;;6.22;;
65174;SDS011;51761;42.126;24.752;2023-02-01T16:31:38;21.45;;;10.10;;
65174;SDS011;51761;42.126;24.752;2023-02-01T16:34:05;19.80;;;9.77;;
65174;SDS011;51761;42.126;24.752;2023-02-01T16:36:31;13.88;;;6.57;;
65174;SDS011;51761;42.126;24.752;2023-02-01T16:38:58;16.00;;;6.60;;
65174;SDS011;51761;42.126;24.752;2023-02-01T16:41:24;12.52;;;6.25;;
65174;SDS011;51761;42.126;24.752;2023-02-01T16:43:53;15.50;;;7.28;;
65174;SDS011;51761;42.126;24.752;2023-02-01T16:46:20;13.02;;;6.22;;
65174;SDS011;51761;42.126;24.752;2023-02-01T16:48:53;20.50;;;6.30;;
65174;SDS011;51761;42.126;24.752;2023-02-01T16:51:21;19.08;;;8.35;;
65174;SDS011;51761;42.126;24.752;2023-02-01T16:53:49;19.00;;;6.97;;
65174;SDS011;51761;42.126;24.752;2023-02-01T16:56:17;8.88;;;4.97;;
65174;SDS011;51761;42.126;24.752;2023-02-01T16:58:47;14.75;;;6.00;;
65174;SDS011;51761;42.126;24.752;2023-02-01T17:01:14;11.82;;;5.65;;
65174;SDS011;51761;42.126;24.752;2023-02-01T17:03:41;15.73;;;7.45;;
65174;SDS011;51761;42.126;24.752;2023-02-01T17:06:10;13.43;;;5.88;;
65174;SDS011;51761;42.126;24.752;2023-02-01T17:08:39;22.80;;;9.57;;
65174;SDS011;51761;42.126;24.752;2023-02-01T17:11:07;29.73;;;10.45;;
65174;SDS011;51761;42.126;24.752;2023-02-01T17:13:34;32.97;;;10.32;;
65174;SDS011;51761;42.126;24.752;2023-02-01T17:16:00;25.75;;;10.68;;
65174;SDS011;51761;42.126;24.752;2023-02-01T17:18:29;20.80;;;8.27;;
65174;SDS011;51761;42.126;24.752;2023-02-01T17:20:58;24.17;;;9.13;;
65174;SDS011;51761;42.126;24.752;2023-02-01T17:23:25;23.73;;;7.95;;
65174;SDS011;51761;42.126;24.752;2023-02-01T17:25:53;19.77;;;7.78;;
65174;SDS011;51761;42.126;24.752;2023-02-01T17:28:19;24.20;;;7.40;;
65174;SDS011;51761;42.126;24.752;2023-02-01T17:30:44;20.25;;;7.25;;
65174;SDS011;51761;42.126;24.752;2023-02-01T17:33:12;21.23;;;7.97;;